Hauptseite
METAR-TAF:

METAR-TAF

Flughäfen :

Fliegerhorst Büchel

Büchel, Deutschland

Breite: 50-10N, Länge: 007-04E, Höhe: 478 m

Beobachtung

Neuester Wetterbericht von vor 1 Stunde und 3 Minuten, um 10:20 UTC
Wind 4 kt aus Südost
Temperatur 21°C
Luftfeuchtigkeit 49%
Luftdruck 1022 hPa
Sichtweite 10 km oder mehr

METAR: ETSB 141020Z 14004KT 9999 21/10 Q1022 BLU+BLU+

Zeit: 13:23 (11:23 UTC)

Prognose

Neuester Wetterbericht von vor 33 Minuten, um 10:50 UTC
Gültige Prognose vom 14 um 11 UTC bis 14 um 20 UTC
Wind 8 kt aus Südost
Sichtweite 10 km oder mehr
Himmel klar

TAF: ETSB 141050Z 1411/1420 14008KT 9999 NSW SKC BY ETGL

Wetterbeobachtungen und Prognosen von mehr als 4000 Flughäfen (METAR und TAF Bericht).

Die verfügbaren Stationen werden durch gelbe und rote Markierungen auf der Karte dargestellt.

Führen Sie die Maus auf sie, um den Namen der Station zu sehen.

Darauf klicken, um die Beobachtung von Wetterbeobachtungen und Prognosen zu sehen.

Um die Karte zu ändern : klicken Sie auf den grünen Tasten mit einem schwarzen Kreuz Zum Vergrößern, auf den grünen Button mit einem Gedankenstrich zu verkleinern, oder auf die grünen Pfeile für benachbarte Karten.


METAR-TAF: